sensor_id;sensor_type;location;lat;lon;timestamp;P1;durP1;ratioP1;P2;durP2;ratioP2
727;SDS011;347;48.780;9.158;2024-03-23T00:53:22;9.63;;;9.13;;
727;SDS011;347;48.780;9.158;2024-03-23T00:55:49;9.77;;;9.27;;
727;SDS011;347;48.780;9.158;2024-03-23T00:58:20;9.60;;;8.73;;
727;SDS011;347;48.780;9.158;2024-03-23T01:00:46;9.10;;;8.20;;
727;SDS011;347;48.780;9.158;2024-03-23T01:03:11;8.53;;;8.03;;
727;SDS011;347;48.780;9.158;2024-03-23T01:05:46;8.47;;;7.97;;
727;SDS011;347;48.780;9.158;2024-03-23T01:08:13;7.70;;;7.10;;
727;SDS011;347;48.780;9.158;2024-03-23T01:10:42;7.70;;;7.00;;
727;SDS011;347;48.780;9.158;2024-03-23T01:13:11;6.03;;;5.67;;
727;SDS011;347;48.780;9.158;2024-03-23T01:15:40;7.13;;;6.73;;
727;SDS011;347;48.780;9.158;2024-03-23T01:18:12;8.00;;;7.53;;
727;SDS011;347;48.780;9.158;2024-03-23T01:20:40;6.70;;;6.20;;
727;SDS011;347;48.780;9.158;2024-03-23T01:23:06;7.63;;;7.03;;
727;SDS011;347;48.780;9.158;2024-03-23T01:25:31;7.47;;;6.87;;
727;SDS011;347;48.780;9.158;2024-03-23T01:27:57;7.27;;;6.77;;
727;SDS011;347;48.780;9.158;2024-03-23T01:30:22;7.00;;;6.60;;
727;SDS011;347;48.780;9.158;2024-03-23T01:32:48;7.70;;;7.30;;
727;SDS011;347;48.780;9.158;2024-03-23T01:35:15;6.90;;;6.50;;
727;SDS011;347;48.780;9.158;2024-03-23T01:37:41;6.97;;;6.60;;
727;SDS011;347;48.780;9.158;2024-03-23T01:40:06;9.23;;;8.73;;
727;SDS011;347;48.780;9.158;2024-03-23T01:42:32;7.50;;;7.13;;
727;SDS011;347;48.780;9.158;2024-03-23T01:44:58;7.07;;;6.63;;
727;SDS011;347;48.780;9.158;2024-03-23T01:47:26;6.53;;;6.30;;
727;SDS011;347;48.780;9.158;2024-03-23T01:50:19;6.93;;;6.63;;
727;SDS011;347;48.780;9.158;2024-03-23T01:52:46;7.20;;;6.90;;
727;SDS011;347;48.780;9.158;2024-03-23T01:55:18;6.60;;;6.30;;
727;SDS011;347;48.780;9.158;2024-03-23T01:57:44;7.40;;;7.00;;
727;SDS011;347;48.780;9.158;2024-03-23T02:00:10;7.23;;;6.83;;
727;SDS011;347;48.780;9.158;2024-03-23T02:02:46;6.80;;;6.50;;
727;SDS011;347;48.780;9.158;2024-03-23T02:05:11;7.60;;;7.00;;
727;SDS011;347;48.780;9.158;2024-03-23T02:07:41;7.20;;;6.70;;
727;SDS011;347;48.780;9.158;2024-03-23T02:10:11;6.73;;;6.33;;
727;SDS011;347;48.780;9.158;2024-03-23T02:12:39;7.67;;;7.20;;
727;SDS011;347;48.780;9.158;2024-03-23T02:15:05;8.00;;;7.50;;
727;SDS011;347;48.780;9.158;2024-03-23T02:17:32;7.80;;;7.40;;
727;SDS011;347;48.780;9.158;2024-03-23T02:19:59;7.53;;;7.10;;
727;SDS011;347;48.780;9.158;2024-03-23T02:22:37;7.33;;;7.00;;
727;SDS011;347;48.780;9.158;2024-03-23T02:25:06;7.60;;;7.00;;
727;SDS011;347;48.780;9.158;2024-03-23T02:27:32;7.80;;;7.30;;
727;SDS011;347;48.780;9.158;2024-03-23T02:29:59;7.73;;;7.13;;
727;SDS011;347;48.780;9.158;2024-03-23T02:32:25;7.90;;;7.40;;
727;SDS011;347;48.780;9.158;2024-03-23T02:34:50;7.13;;;6.60;;
727;SDS011;347;48.780;9.158;2024-03-23T02:37:16;8.17;;;7.70;;
727;SDS011;347;48.780;9.158;2024-03-23T02:39:41;7.50;;;7.10;;
727;SDS011;347;48.780;9.158;2024-03-23T02:42:07;7.80;;;7.30;;
727;SDS011;347;48.780;9.158;2024-03-23T02:44:32;7.80;;;7.47;;
727;SDS011;347;48.780;9.158;2024-03-23T02:46:58;7.03;;;6.73;;
727;SDS011;347;48.780;9.158;2024-03-23T02:49:33;7.43;;;7.03;;
727;SDS011;347;48.780;9.158;2024-03-23T02:51:59;7.40;;;7.10;;
727;SDS011;347;48.780;9.158;2024-03-23T02:54:27;6.80;;;6.50;;
727;SDS011;347;48.780;9.158;2024-03-23T02:56:52;7.47;;;6.77;;
727;SDS011;347;48.780;9.158;2024-03-23T02:59:18;7.20;;;6.80;;
727;SDS011;347;48.780;9.158;2024-03-23T03:01:43;7.70;;;7.20;;
727;SDS011;347;48.780;9.158;2024-03-23T03:04:24;7.67;;;7.27;;
727;SDS011;347;48.780;9.158;2024-03-23T03:06:49;8.30;;;7.80;;
727;SDS011;347;48.780;9.158;2024-03-23T03:09:15;7.90;;;7.60;;
727;SDS011;347;48.780;9.158;2024-03-23T03:11:45;7.37;;;7.07;;
727;SDS011;347;48.780;9.158;2024-03-23T03:14:10;8.00;;;7.50;;
727;SDS011;347;48.780;9.158;2024-03-23T03:16:36;7.90;;;7.40;;
727;SDS011;347;48.780;9.158;2024-03-23T03:19:01;8.00;;;7.20;;
727;SDS011;347;48.780;9.158;2024-03-23T03:21:27;8.03;;;7.63;;
727;SDS011;347;48.780;9.158;2024-03-23T03:23:53;7.73;;;7.33;;
727;SDS011;347;48.780;9.158;2024-03-23T03:26:19;8.23;;;7.83;;
727;SDS011;347;48.780;9.158;2024-03-23T03:28:44;7.43;;;7.03;;
727;SDS011;347;48.780;9.158;2024-03-23T03:31:13;7.80;;;7.50;;
727;SDS011;347;48.780;9.158;2024-03-23T03:33:43;7.90;;;7.47;;
727;SDS011;347;48.780;9.158;2024-03-23T03:36:08;7.73;;;7.40;;
727;SDS011;347;48.780;9.158;2024-03-23T03:38:34;7.60;;;7.30;;
727;SDS011;347;48.780;9.158;2024-03-23T03:41:00;8.00;;;7.60;;
727;SDS011;347;48.780;9.158;2024-03-23T03:43:26;7.73;;;7.43;;
727;SDS011;347;48.780;9.158;2024-03-23T03:45:52;8.00;;;7.60;;
727;SDS011;347;48.780;9.158;2024-03-23T03:48:24;7.60;;;7.30;;
727;SDS011;347;48.780;9.158;2024-03-23T03:50:53;7.43;;;7.07;;
727;SDS011;347;48.780;9.158;2024-03-23T03:53:19;7.97;;;7.67;;
727;SDS011;347;48.780;9.158;2024-03-23T03:55:45;8.10;;;7.50;;
727;SDS011;347;48.780;9.158;2024-03-23T03:58:10;7.70;;;7.37;;
727;SDS011;347;48.780;9.158;2024-03-23T04:00:36;7.57;;;7.20;;
727;SDS011;347;48.780;9.158;2024-03-23T04:03:01;8.37;;;7.97;;
727;SDS011;347;48.780;9.158;2024-03-23T04:05:38;8.00;;;7.60;;
727;SDS011;347;48.780;9.158;2024-03-23T04:08:04;8.70;;;8.30;;
727;SDS011;347;48.780;9.158;2024-03-23T04:10:34;7.80;;;7.40;;
727;SDS011;347;48.780;9.158;2024-03-23T04:13:00;8.50;;;8.00;;
727;SDS011;347;48.780;9.158;2024-03-23T04:15:26;8.47;;;8.07;;
727;SDS011;347;48.780;9.158;2024-03-23T04:17:51;9.37;;;8.67;;
727;SDS011;347;48.780;9.158;2024-03-23T04:20:17;7.77;;;7.37;;
727;SDS011;347;48.780;9.158;2024-03-23T04:22:43;7.97;;;7.67;;
727;SDS011;347;48.780;9.158;2024-03-23T04:25:08;8.47;;;8.07;;
727;SDS011;347;48.780;9.158;2024-03-23T04:27:38;7.83;;;7.50;;
727;SDS011;347;48.780;9.158;2024-03-23T04:30:03;7.77;;;7.47;;
727;SDS011;347;48.780;9.158;2024-03-23T04:32:34;8.63;;;8.20;;
727;SDS011;347;48.780;9.158;2024-03-23T04:35:06;7.87;;;7.50;;
727;SDS011;347;48.780;9.158;2024-03-23T04:37:35;8.23;;;7.83;;
727;SDS011;347;48.780;9.158;2024-03-23T04:40:04;8.40;;;8.00;;
727;SDS011;347;48.780;9.158;2024-03-23T04:42:31;8.67;;;8.23;;
727;SDS011;347;48.780;9.158;2024-03-23T04:44:56;9.37;;;8.80;;
727;SDS011;347;48.780;9.158;2024-03-23T04:47:25;9.70;;;9.10;;
727;SDS011;347;48.780;9.158;2024-03-23T04:49:50;9.30;;;8.80;;
727;SDS011;347;48.780;9.158;2024-03-23T04:52:17;9.97;;;9.33;;
727;SDS011;347;48.780;9.158;2024-03-23T04:54:42;10.13;;;9.60;;
727;SDS011;347;48.780;9.158;2024-03-23T04:57:08;10.53;;;10.03;;
727;SDS011;347;48.780;9.158;2024-03-23T04:59:34;11.30;;;10.70;;
727;SDS011;347;48.780;9.158;2024-03-23T05:02:03;10.97;;;10.27;;
727;SDS011;347;48.780;9.158;2024-03-23T05:04:28;11.17;;;10.60;;
727;SDS011;347;48.780;9.158;2024-03-23T05:07:00;11.73;;;10.93;;
727;SDS011;347;48.780;9.158;2024-03-23T05:09:26;12.73;;;11.93;;
727;SDS011;347;48.780;9.158;2024-03-23T05:11:55;14.63;;;13.67;;
727;SDS011;347;48.780;9.158;2024-03-23T05:14:22;14.17;;;13.23;;
727;SDS011;347;48.780;9.158;2024-03-23T05:16:50;14.00;;;13.10;;
727;SDS011;347;48.780;9.158;2024-03-23T05:19:42;16.03;;;14.73;;
727;SDS011;347;48.780;9.158;2024-03-23T05:22:09;16.87;;;15.70;;
727;SDS011;347;48.780;9.158;2024-03-23T05:24:36;17.70;;;16.40;;
727;SDS011;347;48.780;9.158;2024-03-23T05:27:02;17.00;;;15.97;;
727;SDS011;347;48.780;9.158;2024-03-23T05:29:28;18.10;;;17.00;;
727;SDS011;347;48.780;9.158;2024-03-23T05:31:54;18.20;;;17.10;;
727;SDS011;347;48.780;9.158;2024-03-23T05:34:22;19.50;;;18.30;;
727;SDS011;347;48.780;9.158;2024-03-23T05:36:47;19.10;;;17.77;;
727;SDS011;347;48.780;9.158;2024-03-23T05:39:14;18.83;;;17.63;;
727;SDS011;347;48.780;9.158;2024-03-23T05:41:41;18.50;;;17.30;;
727;SDS011;347;48.780;9.158;2024-03-23T05:44:07;17.77;;;16.67;;
727;SDS011;347;48.780;9.158;2024-03-23T05:46:35;18.27;;;17.07;;
727;SDS011;347;48.780;9.158;2024-03-23T05:49:01;17.07;;;15.97;;
727;SDS011;347;48.780;9.158;2024-03-23T05:51:27;19.67;;;18.23;;
727;SDS011;347;48.780;9.158;2024-03-23T05:53:53;16.77;;;15.80;;
727;SDS011;347;48.780;9.158;2024-03-23T05:56:19;17.20;;;15.90;;
727;SDS011;347;48.780;9.158;2024-03-23T05:58:57;14.60;;;13.60;;
727;SDS011;347;48.780;9.158;2024-03-23T06:01:28;13.20;;;12.40;;
727;SDS011;347;48.780;9.158;2024-03-23T06:03:54;12.50;;;11.70;;
727;SDS011;347;48.780;9.158;2024-03-23T06:06:19;10.53;;;10.03;;
727;SDS011;347;48.780;9.158;2024-03-23T06:08:45;11.70;;;11.10;;
727;SDS011;347;48.780;9.158;2024-03-23T06:11:11;12.63;;;12.03;;
727;SDS011;347;48.780;9.158;2024-03-23T06:13:36;12.07;;;11.37;;
727;SDS011;347;48.780;9.158;2024-03-23T06:16:02;10.97;;;10.43;;
727;SDS011;347;48.780;9.158;2024-03-23T06:18:27;10.67;;;10.17;;
727;SDS011;347;48.780;9.158;2024-03-23T06:20:53;11.00;;;10.40;;
727;SDS011;347;48.780;9.158;2024-03-23T06:23:19;9.67;;;9.17;;
727;SDS011;347;48.780;9.158;2024-03-23T06:25:45;8.77;;;8.37;;
727;SDS011;347;48.780;9.158;2024-03-23T06:28:11;9.20;;;8.80;;
727;SDS011;347;48.780;9.158;2024-03-23T06:30:36;8.13;;;7.83;;
727;SDS011;347;48.780;9.158;2024-03-23T06:33:02;8.23;;;7.83;;
727;SDS011;347;48.780;9.158;2024-03-23T06:35:28;7.70;;;7.40;;
727;SDS011;347;48.780;9.158;2024-03-23T06:37:53;7.93;;;7.53;;
727;SDS011;347;48.780;9.158;2024-03-23T06:40:19;7.17;;;6.97;;
727;SDS011;347;48.780;9.158;2024-03-23T06:42:44;7.03;;;6.43;;
727;SDS011;347;48.780;9.158;2024-03-23T06:45:10;7.30;;;7.10;;
727;SDS011;347;48.780;9.158;2024-03-23T06:47:35;7.30;;;7.10;;
727;SDS011;347;48.780;9.158;2024-03-23T06:50:02;6.83;;;6.63;;
727;SDS011;347;48.780;9.158;2024-03-23T06:52:29;6.53;;;6.33;;
727;SDS011;347;48.780;9.158;2024-03-23T06:54:55;6.17;;;5.97;;
727;SDS011;347;48.780;9.158;2024-03-23T06:57:21;6.67;;;6.47;;
727;SDS011;347;48.780;9.158;2024-03-23T06:59:47;6.30;;;6.10;;
727;SDS011;347;48.780;9.158;2024-03-23T07:02:12;6.37;;;6.17;;
727;SDS011;347;48.780;9.158;2024-03-23T07:04:38;6.33;;;6.13;;
727;SDS011;347;48.780;9.158;2024-03-23T07:07:07;6.70;;;6.50;;
727;SDS011;347;48.780;9.158;2024-03-23T07:09:33;7.03;;;6.83;;
727;SDS011;347;48.780;9.158;2024-03-23T07:11:58;6.67;;;6.47;;
727;SDS011;347;48.780;9.158;2024-03-23T07:14:24;6.23;;;6.03;;
727;SDS011;347;48.780;9.158;2024-03-23T07:16:50;6.17;;;5.93;;
727;SDS011;347;48.780;9.158;2024-03-23T07:19:19;6.87;;;6.67;;
727;SDS011;347;48.780;9.158;2024-03-23T07:21:44;6.17;;;5.97;;
727;SDS011;347;48.780;9.158;2024-03-23T07:24:10;6.57;;;6.40;;
727;SDS011;347;48.780;9.158;2024-03-23T07:26:36;6.20;;;6.00;;
727;SDS011;347;48.780;9.158;2024-03-23T07:29:05;5.70;;;5.60;;
727;SDS011;347;48.780;9.158;2024-03-23T07:31:31;6.37;;;6.20;;
727;SDS011;347;48.780;9.158;2024-03-23T07:33:57;6.10;;;5.90;;
727;SDS011;347;48.780;9.158;2024-03-23T07:36:22;6.67;;;6.23;;
727;SDS011;347;48.780;9.158;2024-03-23T07:38:48;6.20;;;6.00;;
727;SDS011;347;48.780;9.158;2024-03-23T07:41:18;6.10;;;5.90;;
727;SDS011;347;48.780;9.158;2024-03-23T07:43:45;6.53;;;6.33;;
727;SDS011;347;48.780;9.158;2024-03-23T07:46:11;6.57;;;6.27;;
727;SDS011;347;48.780;9.158;2024-03-23T07:48:37;6.93;;;6.73;;
727;SDS011;347;48.780;9.158;2024-03-23T07:51:10;6.40;;;6.20;;
727;SDS011;347;48.780;9.158;2024-03-23T07:53:42;6.47;;;6.27;;
727;SDS011;347;48.780;9.158;2024-03-23T07:56:09;6.23;;;5.73;;
727;SDS011;347;48.780;9.158;2024-03-23T07:58:35;5.90;;;5.77;;
727;SDS011;347;48.780;9.158;2024-03-23T08:01:08;6.27;;;6.07;;
727;SDS011;347;48.780;9.158;2024-03-23T08:03:35;7.20;;;6.90;;
727;SDS011;347;48.780;9.158;2024-03-23T08:08:40;5.80;;;5.70;;
727;SDS011;347;48.780;9.158;2024-03-23T08:11:10;6.00;;;5.80;;
727;SDS011;347;48.780;9.158;2024-03-23T08:13:38;6.80;;;6.60;;
727;SDS011;347;48.780;9.158;2024-03-23T08:16:05;7.20;;;6.83;;
727;SDS011;347;48.780;9.158;2024-03-23T08:18:31;6.73;;;6.53;;
727;SDS011;347;48.780;9.158;2024-03-23T08:21:00;7.33;;;7.13;;
727;SDS011;347;48.780;9.158;2024-03-23T08:23:30;6.40;;;6.20;;
727;SDS011;347;48.780;9.158;2024-03-23T08:26:01;6.10;;;5.90;;
727;SDS011;347;48.780;9.158;2024-03-23T08:28:28;6.00;;;5.80;;
727;SDS011;347;48.780;9.158;2024-03-23T08:30:55;6.30;;;6.10;;
727;SDS011;347;48.780;9.158;2024-03-23T08:33:38;6.73;;;6.53;;
727;SDS011;347;48.780;9.158;2024-03-23T08:36:07;6.00;;;5.80;;
727;SDS011;347;48.780;9.158;2024-03-23T08:38:33;6.83;;;6.63;;
727;SDS011;347;48.780;9.158;2024-03-23T08:43:32;6.47;;;6.27;;
727;SDS011;347;48.780;9.158;2024-03-23T08:46:07;6.50;;;6.23;;
727;SDS011;347;48.780;9.158;2024-03-23T08:48:41;5.63;;;5.43;;
727;SDS011;347;48.780;9.158;2024-03-23T08:51:14;6.60;;;6.40;;
727;SDS011;347;48.780;9.158;2024-03-23T08:53:48;7.00;;;6.70;;
727;SDS011;347;48.780;9.158;2024-03-23T08:56:19;6.57;;;6.37;;
727;SDS011;347;48.780;9.158;2024-03-23T08:58:47;15.97;;;14.67;;
727;SDS011;347;48.780;9.158;2024-03-23T09:01:25;7.13;;;6.93;;
727;SDS011;347;48.780;9.158;2024-03-23T09:03:52;7.30;;;7.00;;
727;SDS011;347;48.780;9.158;2024-03-23T09:06:18;8.20;;;7.80;;
727;SDS011;347;48.780;9.158;2024-03-23T09:08:43;7.77;;;7.57;;
727;SDS011;347;48.780;9.158;2024-03-23T09:11:10;8.33;;;8.03;;
727;SDS011;347;48.780;9.158;2024-03-23T09:13:37;7.80;;;7.50;;
727;SDS011;347;48.780;9.158;2024-03-23T09:16:03;8.33;;;7.83;;
727;SDS011;347;48.780;9.158;2024-03-23T09:18:33;9.20;;;8.40;;
727;SDS011;347;48.780;9.158;2024-03-23T09:21:03;8.27;;;7.97;;
727;SDS011;347;48.780;9.158;2024-03-23T09:23:41;8.17;;;7.77;;
727;SDS011;347;48.780;9.158;2024-03-23T09:26:08;8.50;;;8.00;;
727;SDS011;347;48.780;9.158;2024-03-23T09:28:37;8.20;;;7.70;;
727;SDS011;347;48.780;9.158;2024-03-23T09:31:13;8.57;;;8.17;;
727;SDS011;347;48.780;9.158;2024-03-23T09:33:40;10.00;;;9.20;;
727;SDS011;347;48.780;9.158;2024-03-23T09:36:06;9.57;;;8.97;;
727;SDS011;347;48.780;9.158;2024-03-23T09:38:32;9.30;;;8.70;;
727;SDS011;347;48.780;9.158;2024-03-23T09:40:58;10.53;;;9.53;;
727;SDS011;347;48.780;9.158;2024-03-23T09:43:24;9.50;;;9.00;;
727;SDS011;347;48.780;9.158;2024-03-23T09:45:50;8.73;;;8.20;;
727;SDS011;347;48.780;9.158;2024-03-23T09:48:16;9.23;;;8.67;;
727;SDS011;347;48.780;9.158;2024-03-23T09:50:42;8.87;;;8.23;;
727;SDS011;347;48.780;9.158;2024-03-23T09:53:10;8.77;;;8.27;;
727;SDS011;347;48.780;9.158;2024-03-23T09:55:37;8.60;;;7.87;;
727;SDS011;347;48.780;9.158;2024-03-23T09:58:03;8.67;;;8.17;;
727;SDS011;347;48.780;9.158;2024-03-23T10:00:33;8.30;;;7.80;;
727;SDS011;347;48.780;9.158;2024-03-23T10:02:59;8.80;;;8.20;;
727;SDS011;347;48.780;9.158;2024-03-23T10:05:29;9.90;;;9.30;;
727;SDS011;347;48.780;9.158;2024-03-23T10:08:16;10.80;;;9.93;;
727;SDS011;347;48.780;9.158;2024-03-23T10:10:44;10.37;;;9.70;;
727;SDS011;347;48.780;9.158;2024-03-23T10:13:11;9.97;;;9.17;;
727;SDS011;347;48.780;9.158;2024-03-23T10:15:48;9.00;;;8.50;;
727;SDS011;347;48.780;9.158;2024-03-23T10:18:20;10.20;;;9.20;;
727;SDS011;347;48.780;9.158;2024-03-23T10:23:30;9.77;;;9.07;;
727;SDS011;347;48.780;9.158;2024-03-23T10:28:55;9.40;;;8.67;;
727;SDS011;347;48.780;9.158;2024-03-23T10:31:37;8.80;;;8.20;;
727;SDS011;347;48.780;9.158;2024-03-23T10:34:06;8.90;;;8.30;;
727;SDS011;347;48.780;9.158;2024-03-23T10:36:32;9.30;;;8.70;;
727;SDS011;347;48.780;9.158;2024-03-23T10:39:00;10.10;;;8.47;;
727;SDS011;347;48.780;9.158;2024-03-23T10:41:26;9.90;;;9.20;;
727;SDS011;347;48.780;9.158;2024-03-23T10:43:53;9.10;;;8.27;;
727;SDS011;347;48.780;9.158;2024-03-23T10:46:21;9.30;;;8.47;;
727;SDS011;347;48.780;9.158;2024-03-23T10:48:46;10.20;;;9.20;;
727;SDS011;347;48.780;9.158;2024-03-23T10:51:12;9.80;;;8.87;;
727;SDS011;347;48.780;9.158;2024-03-23T10:53:39;8.10;;;7.70;;
727;SDS011;347;48.780;9.158;2024-03-23T10:56:05;8.47;;;7.97;;
727;SDS011;347;48.780;9.158;2024-03-23T10:58:33;9.70;;;8.80;;
727;SDS011;347;48.780;9.158;2024-03-23T11:01:12;8.90;;;8.30;;
727;SDS011;347;48.780;9.158;2024-03-23T11:03:38;9.50;;;8.80;;
727;SDS011;347;48.780;9.158;2024-03-23T11:08:38;8.10;;;7.70;;
727;SDS011;347;48.780;9.158;2024-03-23T11:24:50;8.07;;;7.67;;
727;SDS011;347;48.780;9.158;2024-03-23T11:27:44;8.70;;;8.30;;
727;SDS011;347;48.780;9.158;2024-03-23T11:30:31;8.53;;;8.03;;
727;SDS011;347;48.780;9.158;2024-03-23T11:33:26;8.60;;;8.00;;
727;SDS011;347;48.780;9.158;2024-03-23T11:39:46;7.60;;;7.20;;
727;SDS011;347;48.780;9.158;2024-03-23T11:42:17;6.87;;;6.47;;
727;SDS011;347;48.780;9.158;2024-03-23T11:48:19;7.90;;;7.37;;
727;SDS011;347;48.780;9.158;2024-03-23T11:50:49;6.80;;;6.30;;
727;SDS011;347;48.780;9.158;2024-03-23T12:13:56;7.33;;;6.83;;
727;SDS011;347;48.780;9.158;2024-03-23T12:19:18;6.70;;;6.10;;
727;SDS011;347;48.780;9.158;2024-03-23T12:25:26;7.60;;;7.10;;
727;SDS011;347;48.780;9.158;2024-03-23T12:28:28;7.53;;;7.03;;
727;SDS011;347;48.780;9.158;2024-03-23T12:31:50;7.67;;;7.20;;
727;SDS011;347;48.780;9.158;2024-03-23T12:34:21;7.53;;;7.00;;
727;SDS011;347;48.780;9.158;2024-03-23T13:13:54;9.60;;;7.37;;
727;SDS011;347;48.780;9.158;2024-03-23T13:16:19;7.83;;;7.00;;
727;SDS011;347;48.780;9.158;2024-03-23T13:18:45;7.67;;;6.97;;
727;SDS011;347;48.780;9.158;2024-03-23T13:21:10;7.63;;;7.03;;
727;SDS011;347;48.780;9.158;2024-03-23T13:23:36;8.30;;;7.60;;
727;SDS011;347;48.780;9.158;2024-03-23T13:26:03;7.13;;;6.53;;
727;SDS011;347;48.780;9.158;2024-03-23T13:28:28;7.07;;;6.37;;
727;SDS011;347;48.780;9.158;2024-03-23T13:30:55;6.90;;;6.23;;
727;SDS011;347;48.780;9.158;2024-03-23T13:33:22;7.17;;;6.67;;
727;SDS011;347;48.780;9.158;2024-03-23T13:35:53;7.13;;;6.53;;
727;SDS011;347;48.780;9.158;2024-03-23T13:38:23;6.93;;;6.23;;
727;SDS011;347;48.780;9.158;2024-03-23T13:40:55;5.90;;;5.50;;
727;SDS011;347;48.780;9.158;2024-03-23T13:43:22;5.83;;;5.30;;
727;SDS011;347;48.780;9.158;2024-03-23T13:45:49;6.23;;;5.57;;
727;SDS011;347;48.780;9.158;2024-03-23T13:48:19;6.00;;;5.60;;
727;SDS011;347;48.780;9.158;2024-03-23T13:50:46;5.87;;;5.47;;
727;SDS011;347;48.780;9.158;2024-03-23T13:53:15;6.93;;;6.43;;
727;SDS011;347;48.780;9.158;2024-03-23T13:55:47;5.90;;;5.43;;
727;SDS011;347;48.780;9.158;2024-03-23T13:58:15;6.83;;;6.23;;
727;SDS011;347;48.780;9.158;2024-03-23T17:14:36;6.13;;;5.93;;
727;SDS011;347;48.780;9.158;2024-03-23T17:17:02;6.13;;;5.83;;
727;SDS011;347;48.780;9.158;2024-03-23T17:19:28;6.87;;;6.47;;
727;SDS011;347;48.780;9.158;2024-03-23T17:22:00;6.37;;;6.07;;
727;SDS011;347;48.780;9.158;2024-03-23T17:24:27;6.20;;;5.90;;
727;SDS011;347;48.780;9.158;2024-03-23T17:26:57;7.53;;;7.20;;
727;SDS011;347;48.780;9.158;2024-03-23T17:29:22;6.90;;;6.63;;
727;SDS011;347;48.780;9.158;2024-03-23T17:31:48;7.63;;;7.23;;
727;SDS011;347;48.780;9.158;2024-03-23T17:34:14;6.20;;;6.00;;
727;SDS011;347;48.780;9.158;2024-03-23T17:36:46;7.13;;;6.73;;
727;SDS011;347;48.780;9.158;2024-03-23T17:39:12;6.93;;;6.63;;
727;SDS011;347;48.780;9.158;2024-03-23T17:41:37;6.80;;;6.43;;
727;SDS011;347;48.780;9.158;2024-03-23T17:44:03;8.07;;;7.67;;
727;SDS011;347;48.780;9.158;2024-03-23T17:46:29;6.90;;;6.60;;
727;SDS011;347;48.780;9.158;2024-03-23T17:48:54;6.73;;;6.43;;
727;SDS011;347;48.780;9.158;2024-03-23T17:51:20;6.80;;;6.50;;
727;SDS011;347;48.780;9.158;2024-03-23T17:53:46;5.70;;;5.50;;
727;SDS011;347;48.780;9.158;2024-03-23T17:56:11;7.77;;;7.30;;
727;SDS011;347;48.780;9.158;2024-03-23T17:58:37;6.67;;;6.37;;
727;SDS011;347;48.780;9.158;2024-03-23T18:01:07;8.23;;;7.70;;
727;SDS011;347;48.780;9.158;2024-03-23T18:03:33;8.17;;;7.77;;
727;SDS011;347;48.780;9.158;2024-03-23T18:05:59;6.40;;;6.10;;
727;SDS011;347;48.780;9.158;2024-03-23T18:08:25;7.03;;;6.70;;
727;SDS011;347;48.780;9.158;2024-03-23T18:10:51;7.10;;;6.90;;
727;SDS011;347;48.780;9.158;2024-03-23T18:13:17;8.20;;;7.73;;
727;SDS011;347;48.780;9.158;2024-03-23T18:15:42;8.20;;;7.80;;
727;SDS011;347;48.780;9.158;2024-03-23T18:18:08;7.83;;;7.33;;
727;SDS011;347;48.780;9.158;2024-03-23T18:20:34;7.67;;;7.27;;
727;SDS011;347;48.780;9.158;2024-03-23T18:23:00;6.90;;;6.60;;
727;SDS011;347;48.780;9.158;2024-03-23T18:25:25;7.47;;;7.10;;
727;SDS011;347;48.780;9.158;2024-03-23T18:27:51;8.00;;;7.60;;
727;SDS011;347;48.780;9.158;2024-03-23T18:30:18;7.33;;;7.03;;
727;SDS011;347;48.780;9.158;2024-03-23T18:32:43;7.27;;;6.87;;
727;SDS011;347;48.780;9.158;2024-03-23T18:35:09;6.50;;;6.20;;
727;SDS011;347;48.780;9.158;2024-03-23T18:37:35;6.73;;;6.33;;
727;SDS011;347;48.780;9.158;2024-03-23T18:40:00;6.70;;;6.30;;
727;SDS011;347;48.780;9.158;2024-03-23T18:42:26;7.07;;;6.87;;
727;SDS011;347;48.780;9.158;2024-03-23T18:44:51;7.00;;;6.70;;
727;SDS011;347;48.780;9.158;2024-03-23T18:47:17;7.77;;;7.37;;
727;SDS011;347;48.780;9.158;2024-03-23T18:49:42;6.60;;;6.20;;
727;SDS011;347;48.780;9.158;2024-03-23T18:52:08;5.97;;;5.70;;
727;SDS011;347;48.780;9.158;2024-03-23T18:54:33;6.57;;;6.07;;
727;SDS011;347;48.780;9.158;2024-03-23T18:56:59;6.83;;;6.23;;
727;SDS011;347;48.780;9.158;2024-03-23T18:59:24;6.50;;;6.20;;
727;SDS011;347;48.780;9.158;2024-03-23T19:01:50;7.03;;;6.63;;
727;SDS011;347;48.780;9.158;2024-03-23T19:04:16;6.60;;;6.30;;
727;SDS011;347;48.780;9.158;2024-03-23T19:06:41;7.10;;;6.90;;
727;SDS011;347;48.780;9.158;2024-03-23T19:09:07;6.80;;;6.50;;
727;SDS011;347;48.780;9.158;2024-03-23T19:11:33;6.80;;;6.50;;
727;SDS011;347;48.780;9.158;2024-03-23T19:13:59;6.80;;;6.40;;
727;SDS011;347;48.780;9.158;2024-03-23T19:16:25;6.80;;;6.30;;
727;SDS011;347;48.780;9.158;2024-03-23T19:18:50;7.40;;;6.90;;
727;SDS011;347;48.780;9.158;2024-03-23T19:21:16;6.50;;;6.30;;
727;SDS011;347;48.780;9.158;2024-03-23T19:23:41;7.23;;;6.93;;
727;SDS011;347;48.780;9.158;2024-03-23T19:26:07;6.90;;;6.60;;
727;SDS011;347;48.780;9.158;2024-03-23T19:28:32;6.20;;;5.90;;
727;SDS011;347;48.780;9.158;2024-03-23T19:31:01;6.43;;;6.23;;
727;SDS011;347;48.780;9.158;2024-03-23T19:33:30;7.00;;;6.70;;
727;SDS011;347;48.780;9.158;2024-03-23T19:35:57;7.77;;;7.37;;
727;SDS011;347;48.780;9.158;2024-03-23T19:38:23;8.50;;;8.10;;
727;SDS011;347;48.780;9.158;2024-03-23T19:40:55;7.37;;;7.07;;
727;SDS011;347;48.780;9.158;2024-03-23T19:43:22;7.80;;;7.40;;
727;SDS011;347;48.780;9.158;2024-03-23T19:45:48;6.33;;;6.10;;
727;SDS011;347;48.780;9.158;2024-03-23T19:48:13;7.07;;;6.77;;
727;SDS011;347;48.780;9.158;2024-03-23T19:50:39;7.10;;;6.60;;
727;SDS011;347;48.780;9.158;2024-03-23T19:53:05;7.27;;;6.87;;
727;SDS011;347;48.780;9.158;2024-03-23T19:55:32;8.03;;;7.63;;
727;SDS011;347;48.780;9.158;2024-03-23T19:57:58;7.97;;;7.50;;
727;SDS011;347;48.780;9.158;2024-03-23T20:00:23;8.53;;;8.03;;
727;SDS011;347;48.780;9.158;2024-03-23T20:02:49;7.53;;;7.23;;
727;SDS011;347;48.780;9.158;2024-03-23T20:05:15;8.67;;;8.17;;
727;SDS011;347;48.780;9.158;2024-03-23T20:07:41;6.70;;;6.50;;
727;SDS011;347;48.780;9.158;2024-03-23T20:10:06;7.03;;;6.73;;
727;SDS011;347;48.780;9.158;2024-03-23T20:12:32;7.07;;;6.67;;
727;SDS011;347;48.780;9.158;2024-03-23T20:14:58;6.90;;;6.50;;
727;SDS011;347;48.780;9.158;2024-03-23T20:17:23;7.53;;;7.17;;
727;SDS011;347;48.780;9.158;2024-03-23T20:19:50;7.70;;;7.40;;
727;SDS011;347;48.780;9.158;2024-03-23T20:22:15;9.27;;;8.70;;
727;SDS011;347;48.780;9.158;2024-03-23T20:24:41;7.93;;;7.47;;
727;SDS011;347;48.780;9.158;2024-03-23T20:27:06;7.70;;;7.20;;
727;SDS011;347;48.780;9.158;2024-03-23T20:29:33;8.03;;;7.63;;
727;SDS011;347;48.780;9.158;2024-03-23T20:31:59;7.13;;;6.70;;
727;SDS011;347;48.780;9.158;2024-03-23T20:34:24;6.97;;;6.67;;
727;SDS011;347;48.780;9.158;2024-03-23T20:36:51;7.33;;;7.03;;
727;SDS011;347;48.780;9.158;2024-03-23T20:39:17;6.30;;;6.00;;
727;SDS011;347;48.780;9.158;2024-03-23T20:41:42;6.70;;;6.40;;
727;SDS011;347;48.780;9.158;2024-03-23T20:44:08;6.77;;;6.53;;
727;SDS011;347;48.780;9.158;2024-03-23T20:46:34;6.30;;;5.90;;
727;SDS011;347;48.780;9.158;2024-03-23T20:49:00;6.63;;;6.33;;
727;SDS011;347;48.780;9.158;2024-03-23T20:51:25;6.20;;;6.00;;
727;SDS011;347;48.780;9.158;2024-03-23T20:53:51;6.90;;;6.70;;
727;SDS011;347;48.780;9.158;2024-03-23T20:56:16;7.20;;;6.90;;
727;SDS011;347;48.780;9.158;2024-03-23T20:58:42;7.20;;;6.90;;
727;SDS011;347;48.780;9.158;2024-03-23T21:01:08;7.17;;;6.80;;
727;SDS011;347;48.780;9.158;2024-03-23T21:03:34;8.07;;;7.57;;
727;SDS011;347;48.780;9.158;2024-03-23T21:06:00;9.80;;;9.30;;
727;SDS011;347;48.780;9.158;2024-03-23T21:08:31;8.00;;;7.60;;
727;SDS011;347;48.780;9.158;2024-03-23T21:10:57;6.67;;;6.37;;
727;SDS011;347;48.780;9.158;2024-03-23T21:13:23;7.67;;;7.37;;
727;SDS011;347;48.780;9.158;2024-03-23T21:15:49;7.10;;;6.80;;
727;SDS011;347;48.780;9.158;2024-03-23T21:18:16;6.90;;;6.60;;
727;SDS011;347;48.780;9.158;2024-03-23T21:20:43;7.60;;;7.20;;
727;SDS011;347;48.780;9.158;2024-03-23T21:23:08;8.00;;;7.70;;
727;SDS011;347;48.780;9.158;2024-03-23T21:25:34;6.63;;;6.33;;
727;SDS011;347;48.780;9.158;2024-03-23T21:28:00;7.10;;;6.90;;
727;SDS011;347;48.780;9.158;2024-03-23T21:30:25;7.10;;;6.87;;